Time;durP1;ratioP1;P1;durP2;ratioP2;P2;SDS_P1;SDS_P2;PMS_P1;PMS_P2;Temp;Humidity;BMP_temperature;BMP_pressure;BME280_temperature;BME280_humidity;BME280_pressure;Samples;Min_cycle;Max_cycle;Signal;HPM_P1;HPM_P2
2023/01/05 00:02:16;;;;;;;35.80;5.15;;;10.40;99.90;;;;;;5003135;28;20034;-73
2023/01/05 00:04:41;;;;;;;39.55;4.25;;;10.40;99.90;;;;;;5014634;28;20449;-73
2023/01/05 00:07:07;;;;;;;39.33;4.57;;;10.40;99.90;;;;;;5005135;28;20114;-72
2023/01/05 00:09:32;;;;;;;34.80;4.45;;;10.30;99.90;;;;;;5000031;28;20108;-73
2023/01/05 00:22:59;;;;;;;28.15;3.00;;;10.20;99.90;;;;;;5003791;28;20092;-73
2023/01/05 00:25:28;;;;;;;37.92;3.83;;;10.20;99.90;;;;;;5010253;28;20498;-73
2023/01/05 00:27:55;;;;;;;30.23;4.43;;;10.20;99.90;;;;;;5003663;28;20024;-73
2023/01/05 00:30:23;;;;;;;36.35;3.65;;;10.10;99.90;;;;;;5004544;28;20033;-73
2023/01/05 00:32:49;;;;;;;33.78;3.83;;;10.10;99.90;;;;;;5008315;28;20544;-72
2023/01/05 00:35:16;;;;;;;39.63;4.47;;;10.10;99.90;;;;;;5027006;28;20049;-73
2023/01/05 00:37:42;;;;;;;36.22;5.05;;;10.10;99.90;;;;;;5032601;28;20091;-73
2023/01/05 00:40:14;;;;;;;43.03;4.13;;;10.10;99.90;;;;;;5030742;28;20481;-73
2023/01/05 00:42:39;;;;;;;41.28;4.18;;;10.10;99.90;;;;;;5030054;28;20073;-73
2023/01/05 00:45:07;;;;;;;36.83;4.55;;;10.00;99.90;;;;;;5039708;28;20037;-72
2023/01/05 00:47:33;;;;;;;43.85;4.45;;;10.00;99.90;;;;;;5045720;28;20030;-74
2023/01/05 00:49:58;;;;;;;36.75;3.90;;;10.00;99.90;;;;;;5031769;28;20033;-73
2023/01/05 00:52:24;;;;;;;40.25;5.45;;;10.00;99.90;;;;;;5030915;28;20021;-73
2023/01/05 00:54:49;;;;;;;41.03;5.22;;;9.90;99.90;;;;;;5030077;28;20037;-72
2023/01/05 00:57:15;;;;;;;32.80;3.88;;;9.90;99.90;;;;;;5033238;28;20025;-74
2023/01/05 00:59:40;;;;;;;31.30;3.67;;;9.90;99.90;;;;;;5029793;28;20033;-73
2023/01/05 01:02:06;;;;;;;30.23;3.88;;;9.90;99.90;;;;;;5030128;28;20057;-72
2023/01/05 01:04:33;;;;;;;38.63;5.60;;;9.90;99.90;;;;;;5041118;28;20029;-72
2023/01/05 01:06:59;;;;;;;31.52;3.72;;;9.80;99.90;;;;;;5042185;28;20054;-73
2023/01/05 01:09:25;;;;;;;42.30;5.25;;;9.80;99.90;;;;;;5030404;28;20092;-73
2023/01/05 01:11:50;;;;;;;28.17;4.22;;;9.80;99.90;;;;;;5029913;28;20021;-72
2023/01/05 01:14:16;;;;;;;31.45;4.60;;;9.80;99.90;;;;;;5030362;28;20037;-72
2023/01/05 01:16:42;;;;;;;35.17;4.15;;;9.80;99.90;;;;;;5026495;28;20057;-73
2023/01/05 01:19:20;;;;;;;37.67;4.05;;;9.80;99.90;;;;;;5030104;28;20085;-73
2023/01/05 01:21:46;;;;;;;38.88;4.28;;;9.80;99.90;;;;;;5028793;28;20032;-73
2023/01/05 01:24:21;;;;;;;23.95;2.30;;;9.70;99.90;;;;;;5034980;28;20038;-72
2023/01/05 01:26:46;;;;;;;25.40;3.47;;;9.70;99.90;;;;;;5031805;28;20028;-73
2023/01/05 01:29:12;;;;;;;37.53;4.47;;;9.70;99.90;;;;;;5030610;28;20037;-73
2023/01/05 01:31:38;;;;;;;33.95;4.15;;;9.70;99.90;;;;;;5030589;28;20029;-73
2023/01/05 01:34:04;;;;;;;21.63;2.75;;;9.70;99.90;;;;;;5032136;28;20504;-72
2023/01/05 01:36:30;;;;;;;32.22;3.35;;;9.70;99.90;;;;;;5029475;28;20025;-73
2023/01/05 01:38:55;;;;;;;28.30;3.38;;;9.70;99.90;;;;;;5034521;28;20036;-73
2023/01/05 01:41:21;;;;;;;35.65;3.65;;;9.80;99.90;;;;;;5020270;28;20440;-72
2023/01/05 01:43:49;;;;;;;33.38;4.60;;;9.80;99.90;;;;;;5027878;28;20024;-73
2023/01/05 01:46:16;;;;;;;41.22;3.33;;;9.90;99.90;;;;;;5030758;28;20037;-73
2023/01/05 01:48:47;;;;;;;26.25;2.78;;;9.90;99.90;;;;;;5030355;28;20108;-73
2023/01/05 01:51:17;;;;;;;36.20;4.55;;;10.00;99.90;;;;;;5027225;28;20461;-73
2023/01/05 01:53:51;;;;;;;34.58;3.95;;;10.00;99.90;;;;;;5029730;28;20029;-72
2023/01/05 01:56:21;;;;;;;41.75;4.30;;;10.10;99.90;;;;;;5029935;28;20037;-73
2023/01/05 01:58:47;;;;;;;40.85;3.95;;;10.10;99.90;;;;;;5035335;28;20116;-73
2023/01/05 02:01:13;;;;;;;44.10;4.00;;;10.10;99.90;;;;;;5028051;28;20105;-73
2023/01/05 02:03:39;;;;;;;36.05;4.00;;;10.10;99.90;;;;;;5029143;28;20128;-73
2023/01/05 02:06:05;;;;;;;43.97;4.18;;;10.20;99.90;;;;;;5029772;28;20028;-72
2023/01/05 02:08:31;;;;;;;30.40;5.22;;;10.20;99.90;;;;;;5030840;28;20111;-73
2023/01/05 02:11:29;;;;;;;25.52;2.63;;;10.20;99.90;;;;;;5029567;28;20517;-72
2023/01/05 02:14:19;;;;;;;32.95;4.13;;;10.20;99.90;;;;;;5034915;28;20134;-73
2023/01/05 02:16:59;;;;;;;30.52;3.55;;;10.20;99.90;;;;;;5021912;28;20026;-73
2023/01/05 02:20:01;;;;;;;39.58;4.30;;;10.20;99.90;;;;;;5023931;28;20021;-72
2023/01/05 02:22:40;;;;;;;38.00;4.25;;;10.20;99.90;;;;;;5039318;28;20560;-72
2023/01/05 02:25:32;;;;;;;36.10;4.40;;;10.20;99.90;;;;;;5006726;28;20036;-72
2023/01/05 02:28:40;;;;;;;41.10;4.32;;;10.20;99.90;;;;;;5014170;28;20040;-73
2023/01/05 02:31:30;;;;;;;39.28;3.22;;;10.20;99.90;;;;;;5033239;28;20433;-73
2023/01/05 02:34:17;;;;;;;35.70;4.70;;;10.20;99.90;;;;;;5020059;28;20517;-72
2023/01/05 02:36:58;;;;;;;32.88;3.88;;;10.20;99.90;;;;;;5029229;28;20025;-73
2023/01/05 02:39:35;;;;;;;38.20;3.95;;;10.20;99.90;;;;;;5029358;28;20085;-72
2023/01/05 02:42:13;;;;;;;34.83;3.50;;;10.20;99.90;;;;;;5024868;28;20045;-73
2023/01/05 02:44:38;;;;;;;32.38;3.35;;;10.20;99.90;;;;;;5025604;28;20056;-73
2023/01/05 02:47:27;;;;;;;30.95;3.60;;;10.20;99.90;;;;;;5027309;28;20061;-72
2023/01/05 02:50:00;;;;;;;23.98;3.55;;;10.20;99.90;;;;;;5025210;28;20089;-72
2023/01/05 02:52:26;;;;;;;36.35;3.58;;;10.20;99.90;;;;;;5027247;28;20033;-73
2023/01/05 02:55:04;;;;;;;32.75;3.35;;;10.20;99.90;;;;;;5029759;28;20045;-72
2023/01/05 02:57:46;;;;;;;36.22;4.72;;;10.30;99.90;;;;;;5026417;28;20025;-73
2023/01/05 03:00:40;;;;;;;34.55;3.88;;;10.20;99.90;;;;;;5028705;28;20072;-72
2023/01/05 03:03:18;;;;;;;31.25;4.05;;;10.20;99.90;;;;;;5016874;28;20397;-72
2023/01/05 03:05:52;;;;;;;35.25;3.92;;;10.20;99.90;;;;;;5016741;28;20021;-73
2023/01/05 03:08:22;;;;;;;39.80;4.35;;;10.10;99.90;;;;;;5016644;28;20477;-73
2023/01/05 03:14:19;;;;;;;32.95;4.38;;;10.20;99.90;;;;;;5032250;28;20068;-73
2023/01/05 03:16:48;;;;;;;30.08;2.75;;;10.20;99.90;;;;;;5032686;28;20497;-73
2023/01/05 03:35:58;;;;;;;35.50;3.60;;;10.20;99.90;;;;;;5033624;28;20055;-73
2023/01/05 03:38:42;;;;;;;32.92;3.78;;;10.30;99.90;;;;;;5032679;28;20043;-72
2023/01/05 03:41:09;;;;;;;35.67;3.75;;;10.20;99.90;;;;;;5031706;28;20037;-73
2023/01/05 03:43:38;;;;;;;29.88;3.65;;;10.30;99.90;;;;;;5031079;28;20389;-73
2023/01/05 03:46:17;;;;;;;30.20;3.65;;;10.30;99.90;;;;;;5029933;28;20037;-72
2023/01/05 03:48:43;;;;;;;37.50;4.47;;;10.30;99.90;;;;;;5022677;28;20021;-74
2023/01/05 03:51:09;;;;;;;33.53;4.90;;;10.30;99.90;;;;;;5031736;28;20036;-72
2023/01/05 03:53:34;;;;;;;30.33;2.90;;;10.30;99.90;;;;;;5026413;28;20056;-73
2023/01/05 03:56:00;;;;;;;33.92;4.75;;;10.30;99.90;;;;;;5032138;28;20041;-72
2023/01/05 03:58:25;;;;;;;31.85;3.08;;;10.30;99.90;;;;;;5031833;28;20034;-73
2023/01/05 04:00:51;;;;;;;30.27;3.58;;;10.30;99.90;;;;;;5028154;28;20034;-73
2023/01/05 04:03:16;;;;;;;24.40;3.55;;;10.30;99.90;;;;;;5031880;28;20033;-73
2023/01/05 04:05:42;;;;;;;23.92;3.15;;;10.30;99.90;;;;;;5016438;28;20017;-72
2023/01/05 04:08:07;;;;;;;41.38;4.72;;;10.30;99.90;;;;;;5031280;28;20033;-73
2023/01/05 04:10:33;;;;;;;38.20;4.05;;;10.40;99.90;;;;;;5031981;28;20033;-73
2023/01/05 04:12:59;;;;;;;27.92;3.80;;;10.40;99.90;;;;;;5023088;28;20037;-73
2023/01/05 04:15:24;;;;;;;32.70;3.20;;;10.40;99.90;;;;;;5031073;28;20046;-73
2023/01/05 04:17:50;;;;;;;37.25;4.07;;;10.40;99.90;;;;;;5023163;28;20026;-73
2023/01/05 04:20:15;;;;;;;30.75;2.92;;;10.40;99.90;;;;;;5033414;28;20040;-73
2023/01/05 04:22:41;;;;;;;26.80;3.05;;;10.30;99.90;;;;;;5028286;28;20116;-74
2023/01/05 04:25:07;;;;;;;20.20;2.60;;;10.40;99.90;;;;;;5030638;28;20033;-73
2023/01/05 04:27:32;;;;;;;25.40;2.65;;;10.40;99.90;;;;;;5029542;28;20076;-73
2023/01/05 04:29:59;;;;;;;27.15;2.83;;;10.40;99.90;;;;;;5026994;28;20057;-72
2023/01/05 04:32:25;;;;;;;33.42;3.30;;;10.40;99.90;;;;;;5030842;28;20033;-73
2023/01/05 04:34:50;;;;;;;23.90;3.10;;;10.40;99.90;;;;;;5019588;28;20052;-73
2023/01/05 04:37:16;;;;;;;23.55;2.65;;;10.40;99.90;;;;;;4997675;28;20099;-73
2023/01/05 04:39:41;;;;;;;26.42;2.83;;;10.40;99.90;;;;;;4992553;28;20027;-71
2023/01/05 04:42:07;;;;;;;29.92;3.10;;;10.40;99.90;;;;;;4993276;28;20037;-73
2023/01/05 04:44:32;;;;;;;30.73;3.33;;;10.40;99.90;;;;;;5009560;28;20036;-73
2023/01/05 04:46:58;;;;;;;39.03;5.60;;;10.50;99.90;;;;;;5004972;28;20068;-73
2023/01/05 04:49:23;;;;;;;37.85;4.07;;;10.50;99.90;;;;;;4996855;28;20482;-73
2023/01/05 04:51:49;;;;;;;31.02;3.10;;;10.40;99.90;;;;;;4976696;28;20161;-73
2023/01/05 04:54:15;;;;;;;27.83;3.85;;;10.50;99.90;;;;;;5002468;28;20049;-73
2023/01/05 04:56:41;;;;;;;23.95;2.83;;;10.40;99.90;;;;;;4995707;28;20030;-73
2023/01/05 04:59:07;;;;;;;26.60;3.97;;;10.50;99.90;;;;;;5005138;28;20088;-72
2023/01/05 05:01:32;;;;;;;31.30;3.38;;;10.50;99.90;;;;;;5010769;28;20093;-73
2023/01/05 05:03:58;;;;;;;40.42;3.17;;;10.50;99.90;;;;;;5011457;28;20073;-73
2023/01/05 05:06:24;;;;;;;29.48;2.78;;;10.40;99.90;;;;;;5009693;28;20037;-72
2023/01/05 05:08:49;;;;;;;32.15;3.15;;;10.50;99.90;;;;;;5010830;28;20088;-73
2023/01/05 05:11:15;;;;;;;28.05;4.03;;;10.40;99.90;;;;;;5006248;28;20064;-74
2023/01/05 05:13:40;;;;;;;29.13;3.95;;;10.40;99.90;;;;;;5009190;28;20078;-73
2023/01/05 05:16:06;;;;;;;29.55;3.35;;;10.40;99.90;;;;;;5009376;28;20184;-73
2023/01/05 05:18:32;;;;;;;31.02;3.38;;;10.40;99.90;;;;;;5008765;28;20026;-73
2023/01/05 05:20:57;;;;;;;24.98;2.97;;;10.40;99.90;;;;;;5009148;28;20033;-73
2023/01/05 05:23:23;;;;;;;33.13;4.32;;;10.40;99.90;;;;;;5010262;28;20116;-73
2023/01/05 05:25:50;;;;;;;32.58;3.40;;;10.50;99.90;;;;;;5008262;28;20030;-73
2023/01/05 05:28:16;;;;;;;28.65;2.85;;;10.40;99.90;;;;;;4984747;28;20025;-73
2023/01/05 05:30:41;;;;;;;25.25;2.92;;;10.50;99.90;;;;;;5010763;28;20512;-73
2023/01/05 05:33:07;;;;;;;29.52;3.88;;;10.50;99.90;;;;;;5007018;28;20037;-73
2023/01/05 05:35:32;;;;;;;23.67;2.60;;;10.50;99.90;;;;;;5001166;28;20061;-73
2023/01/05 05:37:58;;;;;;;34.58;3.33;;;10.40;99.90;;;;;;5011738;28;20022;-72
2023/01/05 05:40:25;;;;;;;32.83;3.45;;;10.50;99.90;;;;;;5010535;28;20574;-73
2023/01/05 05:42:50;;;;;;;30.73;4.32;;;10.50;99.90;;;;;;5008260;28;20029;-73
2023/01/05 05:45:16;;;;;;;27.60;3.35;;;10.50;99.90;;;;;;5014875;28;20473;-73
2023/01/05 05:47:42;;;;;;;31.75;3.72;;;10.50;99.90;;;;;;5024638;28;20049;-73
2023/01/05 05:50:08;;;;;;;25.13;3.25;;;10.50;99.90;;;;;;5008428;28;20026;-73
2023/01/05 05:52:34;;;;;;;26.58;3.47;;;10.50;99.90;;;;;;5009630;28;20025;-73
2023/01/05 05:54:59;;;;;;;22.30;3.60;;;10.60;99.90;;;;;;5010842;28;20175;-73
2023/01/05 05:57:25;;;;;;;32.60;3.35;;;10.60;99.90;;;;;;5020148;28;20026;-73
2023/01/05 05:59:50;;;;;;;25.35;2.47;;;10.60;99.90;;;;;;5010181;28;20480;-73
2023/01/05 06:02:16;;;;;;;29.23;2.85;;;10.50;99.90;;;;;;5006474;28;20568;-73
2023/01/05 06:04:42;;;;;;;20.33;3.15;;;10.60;99.90;;;;;;5006515;28;20030;-73
2023/01/05 06:07:08;;;;;;;37.22;3.92;;;10.60;99.90;;;;;;5014307;28;20041;-73
2023/01/05 06:09:33;;;;;;;34.35;3.45;;;10.60;99.90;;;;;;5012745;28;20489;-73
2023/01/05 06:11:59;;;;;;;32.65;3.03;;;10.60;99.90;;;;;;5008533;28;20022;-73
2023/01/05 06:14:24;;;;;;;36.40;3.70;;;10.60;99.90;;;;;;5007811;28;20030;-73
2023/01/05 06:16:50;;;;;;;34.53;3.80;;;10.60;99.90;;;;;;5002927;28;20120;-72
2023/01/05 06:19:15;;;;;;;31.85;2.50;;;10.60;99.90;;;;;;5006934;28;20029;-73
2023/01/05 06:21:41;;;;;;;34.75;4.10;;;10.60;99.90;;;;;;5010752;28;20030;-73
2023/01/05 06:24:07;;;;;;;33.40;4.25;;;10.50;99.90;;;;;;5006788;28;20041;-73
2023/01/05 06:26:32;;;;;;;34.47;4.57;;;10.60;99.90;;;;;;5008150;28;20034;-73
2023/01/05 06:28:58;;;;;;;37.20;3.75;;;10.50;99.90;;;;;;5007945;28;20030;-74
2023/01/05 06:31:23;;;;;;;27.92;3.38;;;10.50;99.90;;;;;;5004978;28;20037;-73
2023/01/05 06:33:49;;;;;;;38.25;5.50;;;10.50;99.90;;;;;;5010869;28;20057;-73
2023/01/05 06:36:14;;;;;;;26.67;3.80;;;10.50;99.90;;;;;;5026534;28;20037;-73
2023/01/05 06:38:40;;;;;;;36.10;4.35;;;10.50;99.90;;;;;;5031614;28;20041;-75
2023/01/05 06:41:06;;;;;;;38.35;3.85;;;10.50;99.90;;;;;;5040955;28;20025;-73
2023/01/05 06:43:31;;;;;;;34.20;4.03;;;10.40;99.90;;;;;;5029983;28;20072;-73
2023/01/05 06:45:57;;;;;;;30.00;3.38;;;10.50;99.90;;;;;;5035160;28;20147;-73
2023/01/05 06:48:23;;;;;;;40.45;4.50;;;10.50;99.90;;;;;;5037219;28;20038;-75
2023/01/05 06:50:49;;;;;;;34.58;3.95;;;10.50;99.90;;;;;;5030818;28;20096;-74
2023/01/05 06:53:14;;;;;;;36.15;4.18;;;10.50;99.90;;;;;;5033093;28;20031;-74
2023/01/05 06:55:40;;;;;;;33.47;3.30;;;10.50;99.90;;;;;;5031187;28;20038;-73
2023/01/05 06:58:05;;;;;;;31.27;3.38;;;10.50;99.90;;;;;;5037465;28;20021;-73
2023/01/05 07:00:31;;;;;;;33.95;4.57;;;10.50;99.90;;;;;;5033525;28;20048;-74
2023/01/05 07:02:56;;;;;;;25.70;4.05;;;10.50;99.90;;;;;;5028717;28;20033;-74
2023/01/05 07:05:23;;;;;;;38.22;3.58;;;10.50;99.90;;;;;;5033884;28;20029;-74
2023/01/05 07:07:49;;;;;;;27.08;3.53;;;10.50;99.90;;;;;;5014135;28;20033;-73
2023/01/05 07:10:14;;;;;;;30.27;3.47;;;10.50;99.90;;;;;;5030560;28;20088;-74
2023/01/05 07:12:40;;;;;;;30.98;3.97;;;10.50;99.90;;;;;;5032252;28;20037;-74
2023/01/05 07:15:06;;;;;;;36.05;3.95;;;10.50;99.90;;;;;;5032764;28;20037;-73
2023/01/05 07:17:32;;;;;;;25.58;3.00;;;10.50;99.90;;;;;;5033316;28;20057;-73
2023/01/05 07:19:58;;;;;;;42.00;4.68;;;10.50;99.90;;;;;;5026133;28;20116;-73
2023/01/05 07:22:23;;;;;;;35.75;4.75;;;10.50;99.90;;;;;;5038264;28;20504;-74
2023/01/05 07:24:49;;;;;;;32.00;3.42;;;10.50;99.90;;;;;;5030452;28;20076;-74
2023/01/05 07:27:14;;;;;;;30.48;2.78;;;10.50;99.90;;;;;;5021939;28;20037;-74
2023/01/05 07:29:40;;;;;;;27.77;3.38;;;10.50;99.90;;;;;;5026857;28;20025;-74
2023/01/05 07:32:05;;;;;;;27.15;3.10;;;10.50;99.90;;;;;;5029143;28;20107;-73
2023/01/05 07:34:31;;;;;;;33.15;4.22;;;10.50;99.90;;;;;;5016823;28;20057;-74
2023/01/05 07:36:57;;;;;;;28.00;3.15;;;10.50;99.90;;;;;;5025411;28;20052;-73
2023/01/05 07:39:22;;;;;;;34.50;4.00;;;10.50;99.90;;;;;;5000834;28;20394;-73
2023/01/05 07:41:48;;;;;;;21.17;2.95;;;10.40;99.90;;;;;;5012356;28;20022;-74
2023/01/05 07:44:13;;;;;;;43.38;3.78;;;10.40;99.90;;;;;;5007709;28;20129;-74
2023/01/05 07:46:39;;;;;;;36.75;3.25;;;10.40;99.90;;;;;;4999041;28;20024;-74
2023/01/05 07:49:04;;;;;;;23.65;3.33;;;10.40;99.90;;;;;;5001383;28;20117;-74
2023/01/05 07:51:30;;;;;;;32.28;3.30;;;10.40;99.90;;;;;;5011861;28;20044;-74
2023/01/05 07:53:56;;;;;;;32.80;3.33;;;10.40;99.90;;;;;;5009287;28;20038;-74
2023/01/05 07:56:22;;;;;;;34.60;4.47;;;10.30;99.90;;;;;;5006701;28;20049;-73
2023/01/05 07:58:47;;;;;;;27.92;3.10;;;10.40;99.90;;;;;;5007438;28;20665;-74
2023/01/05 08:01:14;;;;;;;33.58;3.58;;;10.30;99.90;;;;;;4986197;28;20478;-74
2023/01/05 08:03:40;;;;;;;43.22;7.03;;;10.20;99.90;;;;;;5002325;28;20088;-74
2023/01/05 08:06:09;;;;;;;32.45;3.28;;;10.20;99.90;;;;;;5005858;28;20066;-73
2023/01/05 08:08:43;;;;;;;45.53;4.45;;;10.20;99.90;;;;;;5004157;28;20023;-74
2023/01/05 08:11:10;;;;;;;23.98;2.42;;;10.20;99.90;;;;;;5011261;28;20166;-74
2023/01/05 08:16:21;;;;;;;29.80;3.38;;;10.10;99.90;;;;;;5011227;28;20121;-74
2023/01/05 08:18:47;;;;;;;39.28;4.30;;;10.10;99.90;;;;;;5012374;28;20110;-74
2023/01/05 08:21:12;;;;;;;29.65;2.67;;;10.10;99.90;;;;;;5010730;28;20088;-74
2023/01/05 08:23:38;;;;;;;41.90;4.70;;;10.10;99.90;;;;;;5005283;28;20067;-74
2023/01/05 08:26:05;;;;;;;30.17;2.55;;;10.00;99.90;;;;;;5012684;28;20109;-72
2023/01/05 08:28:31;;;;;;;33.63;3.53;;;10.10;99.90;;;;;;5011277;28;20525;-74
2023/01/05 08:31:02;;;;;;;35.70;4.28;;;10.10;99.90;;;;;;5024190;28;20025;-73
2023/01/05 08:33:28;;;;;;;26.05;3.40;;;10.10;99.90;;;;;;5012145;28;20374;-74
2023/01/05 08:35:54;;;;;;;28.70;2.95;;;10.10;99.90;;;;;;5030483;28;20418;-73
2023/01/05 08:38:21;;;;;;;28.13;3.28;;;10.10;99.90;;;;;;5032681;28;20075;-74
2023/01/05 08:40:47;;;;;;;35.03;4.93;;;10.10;99.90;;;;;;5018374;28;20026;-74
2023/01/05 08:43:12;;;;;;;37.80;4.75;;;10.20;99.90;;;;;;5011130;28;20037;-74
2023/01/05 08:45:38;;;;;;;35.65;4.03;;;10.20;99.90;;;;;;5021699;28;20026;-74
2023/01/05 08:48:04;;;;;;;37.17;3.60;;;10.30;99.90;;;;;;5012696;28;20080;-74
2023/01/05 08:50:30;;;;;;;33.00;3.92;;;10.30;99.90;;;;;;5004657;28;20367;-74
2023/01/05 08:52:56;;;;;;;27.25;4.38;;;10.30;99.90;;;;;;5012070;28;20024;-74
2023/01/05 08:55:22;;;;;;;25.92;2.92;;;10.30;99.90;;;;;;5012282;28;20568;-74
2023/01/05 08:57:47;;;;;;;38.25;3.90;;;10.40;99.90;;;;;;5011999;28;20473;-74
2023/01/05 09:00:16;;;;;;;27.05;3.03;;;10.40;99.90;;;;;;5003000;28;20033;-74
2023/01/05 09:02:42;;;;;;;27.23;4.15;;;10.40;99.90;;;;;;5010062;28;20109;-74
2023/01/05 09:05:07;;;;;;;33.70;3.78;;;10.40;99.90;;;;;;4997881;28;20089;-74
2023/01/05 09:07:33;;;;;;;29.38;3.50;;;10.50;99.90;;;;;;5005448;28;20444;-73
2023/01/05 09:09:58;;;;;;;33.75;3.53;;;10.50;99.90;;;;;;5012128;28;20029;-74
2023/01/05 09:12:24;;;;;;;32.55;4.90;;;10.50;99.90;;;;;;5011388;28;20034;-73
2023/01/05 09:14:49;;;;;;;27.50;3.65;;;10.60;99.90;;;;;;5005174;28;20036;-74
2023/01/05 09:17:15;;;;;;;29.65;3.08;;;10.60;99.90;;;;;;5009034;28;20030;-74
2023/01/05 09:19:43;;;;;;;30.85;3.22;;;10.60;99.90;;;;;;5010974;28;20061;-73
2023/01/05 09:22:08;;;;;;;33.35;3.55;;;10.60;99.90;;;;;;5026622;28;20541;-73
2023/01/05 09:24:34;;;;;;;29.52;2.97;;;10.60;99.90;;;;;;5010517;28;20022;-73
2023/01/05 09:26:59;;;;;;;28.73;2.70;;;10.60;99.90;;;;;;5010471;28;20045;-73
2023/01/05 09:29:25;;;;;;;32.38;3.45;;;10.60;99.90;;;;;;5011192;28;20358;-73
2023/01/05 09:31:50;;;;;;;40.60;4.03;;;10.60;99.90;;;;;;5025326;28;20393;-73
2023/01/05 09:34:17;;;;;;;32.45;3.35;;;10.60;99.90;;;;;;5030265;28;20556;-73
2023/01/05 09:36:43;;;;;;;45.50;4.07;;;10.70;99.90;;;;;;5019175;28;20073;-73
2023/01/05 09:39:09;;;;;;;33.22;4.45;;;10.70;99.90;;;;;;5026828;28;20022;-73
2023/01/05 09:41:40;;;;;;;17.90;2.90;;;10.70;99.90;;;;;;5010795;28;20458;-73
2023/01/05 09:44:20;;;;;;;38.97;4.40;;;10.70;99.90;;;;;;5011898;28;20025;-73
2023/01/05 09:46:49;;;;;;;28.10;2.78;;;10.80;99.90;;;;;;5009343;28;20028;-73
2023/01/05 09:49:20;;;;;;;31.13;3.35;;;10.80;99.90;;;;;;5027246;28;20026;-73
2023/01/05 09:51:45;;;;;;;39.00;4.20;;;10.80;99.90;;;;;;5023048;28;20034;-73
2023/01/05 09:54:16;;;;;;;35.97;3.83;;;10.80;99.90;;;;;;5011616;28;20030;-73
2023/01/05 09:56:45;;;;;;;30.98;3.17;;;10.80;99.90;;;;;;4991746;28;20363;-73
2023/01/05 09:59:17;;;;;;;27.73;3.20;;;10.80;99.90;;;;;;5011327;28;20069;-73
2023/01/05 10:01:44;;;;;;;29.77;3.30;;;10.80;99.90;;;;;;5007055;28;20038;-73
2023/01/05 10:04:15;;;;;;;34.50;3.10;;;10.80;99.90;;;;;;5011057;28;20026;-73
2023/01/05 10:06:48;;;;;;;36.13;4.78;;;10.80;99.90;;;;;;5010449;28;20026;-73
2023/01/05 10:09:20;;;;;;;39.65;4.72;;;10.80;99.90;;;;;;4999457;28;20033;-73
2023/01/05 10:14:40;;;;;;;37.35;4.28;;;10.80;99.90;;;;;;4999054;28;20501;-73
2023/01/05 10:17:20;;;;;;;32.78;4.00;;;10.80;99.90;;;;;;5015315;28;20113;-73
2023/01/05 10:19:46;;;;;;;40.13;4.10;;;10.90;99.90;;;;;;5001188;28;20034;-73
2023/01/05 10:22:31;;;;;;;26.23;2.83;;;10.90;99.90;;;;;;4991571;28;20030;-73
2023/01/05 10:25:12;;;;;;;39.00;4.82;;;10.90;99.90;;;;;;4992025;28;20033;-73
2023/01/05 10:27:53;;;;;;;22.90;2.70;;;10.90;99.90;;;;;;4997531;28;20104;-73
2023/01/05 10:30:24;;;;;;;40.08;4.25;;;10.90;99.90;;;;;;5009409;28;20025;-73
2023/01/05 10:33:00;;;;;;;32.07;4.60;;;10.90;99.90;;;;;;5010547;28;20466;-74
2023/01/05 10:35:48;;;;;;;25.90;2.90;;;11.00;99.90;;;;;;5038917;28;20310;-73
2023/01/05 10:38:44;;;;;;;32.17;4.03;;;11.00;99.90;;;;;;5035927;28;20052;-73
2023/01/05 10:41:33;;;;;;;33.63;4.22;;;11.00;99.90;;;;;;5029998;28;20029;-73
2023/01/05 10:44:26;;;;;;;32.40;3.03;;;11.00;99.90;;;;;;5029774;28;20029;-73
2023/01/05 10:46:51;;;;;;;;;;;11.10;99.90;;;;;;5012262;28;20056;-73
2023/01/05 10:49:25;;;;;;;38.72;4.65;;;11.20;99.90;;;;;;5027843;28;20364;-73
2023/01/05 10:51:51;;;;;;;38.13;4.25;;;11.20;99.90;;;;;;5039538;28;20025;-74
2023/01/05 10:54:42;;;;;;;41.47;5.10;;;11.20;99.90;;;;;;5033795;28;20547;-74
2023/01/05 10:57:31;;;;;;;41.13;3.83;;;11.30;99.90;;;;;;5011540;28;20033;-74
2023/01/05 11:00:22;;;;;;;38.25;5.05;;;11.40;99.90;;;;;;5023344;28;20045;-74
2023/01/05 11:02:59;;;;;;;36.67;4.43;;;11.40;99.90;;;;;;5040232;28;20433;-74
2023/01/05 11:05:40;;;;;;;38.88;4.47;;;11.50;99.90;;;;;;5043611;28;20018;-74
2023/01/05 11:08:20;;;;;;;35.65;5.10;;;11.50;99.90;;;;;;5028028;28;20413;-73
2023/01/05 11:10:56;;;;;;;29.58;4.50;;;11.60;99.90;;;;;;5029477;28;20026;-74
2023/01/05 11:13:34;;;;;;;30.13;3.40;;;11.60;99.90;;;;;;5033944;28;20086;-74
2023/01/05 11:16:05;;;;;;;42.53;4.40;;;11.60;99.90;;;;;;5030343;28;20039;-74
2023/01/05 11:18:49;;;;;;;22.65;3.22;;;11.60;99.90;;;;;;5027989;28;20029;-74
2023/01/05 11:21:22;;;;;;;39.28;4.60;;;11.70;99.90;;;;;;5027564;28;20056;-76
2023/01/05 11:23:53;;;;;;;32.50;3.58;;;11.70;99.90;;;;;;5029266;28;20041;-74
2023/01/05 11:26:26;;;;;;;28.05;3.60;;;11.60;99.90;;;;;;5033439;28;20112;-74
2023/01/05 11:29:07;;;;;;;33.88;4.53;;;11.60;99.90;;;;;;5028430;28;20025;-74
2023/01/05 11:31:53;;;;;;;32.92;4.50;;;11.50;99.90;;;;;;5030577;28;20036;-74
2023/01/05 11:34:47;;;;;;;40.28;5.22;;;11.50;99.90;;;;;;5027570;28;20081;-74
2023/01/05 11:37:28;;;;;;;35.42;3.60;;;11.40;99.90;;;;;;5011372;28;20425;-74
2023/01/05 11:39:59;;;;;;;28.77;4.07;;;11.50;99.90;;;;;;5021469;28;20084;-74
2023/01/05 11:42:25;;;;;;;27.88;3.45;;;11.60;99.90;;;;;;5023027;28;20053;-74
2023/01/05 11:44:57;;;;;;;26.25;3.55;;;11.60;99.90;;;;;;5011729;28;20353;-74
2023/01/05 11:47:44;;;;;;;38.25;3.97;;;11.70;99.90;;;;;;5015435;28;20033;-74
2023/01/05 11:50:12;;;;;;;29.50;3.30;;;11.60;99.90;;;;;;5012080;28;20112;-74
2023/01/05 11:52:41;;;;;;;28.48;3.05;;;11.70;99.90;;;;;;5012704;28;20434;-74
2023/01/05 11:55:26;;;;;;;38.13;4.95;;;11.70;99.90;;;;;;5011400;28;20034;-72
2023/01/05 11:57:53;;;;;;;37.95;4.10;;;11.80;99.90;;;;;;5010743;28;20096;-74
2023/01/05 12:00:26;;;;;;;35.63;3.63;;;11.90;99.90;;;;;;5012110;28;20064;-74
2023/01/05 12:02:54;;;;;;;25.35;3.55;;;11.90;99.90;;;;;;5010681;28;20609;-74
2023/01/05 12:05:29;;;;;;;27.52;3.60;;;12.00;99.90;;;;;;5008145;28;20161;-75
2023/01/05 12:08:00;;;;;;;33.22;3.92;;;12.00;99.90;;;;;;5001873;28;20069;-74
2023/01/05 12:10:29;;;;;;;32.08;4.32;;;12.10;99.90;;;;;;5007612;28;20062;-74
2023/01/05 12:13:07;;;;;;;31.98;4.00;;;12.00;99.90;;;;;;5000243;28;20033;-74
2023/01/05 12:16:08;;;;;;;42.53;4.95;;;12.00;99.90;;;;;;4999160;28;20088;-74
2023/01/05 12:19:12;;;;;;;29.67;3.50;;;12.00;99.90;;;;;;5006276;28;20026;-74
2023/01/05 12:21:40;;;;;;;29.08;3.63;;;12.00;99.90;;;;;;5006213;28;20053;-74
2023/01/05 12:24:44;;;;;;;26.45;3.72;;;11.90;99.90;;;;;;5004638;28;20022;-74
2023/01/05 12:27:31;;;;;;;24.15;3.00;;;11.80;99.90;;;;;;5002949;28;20538;-74
2023/01/05 12:30:19;;;;;;;30.92;3.28;;;11.70;99.90;;;;;;5005868;28;20101;-74
2023/01/05 12:33:20;;;;;;;28.15;3.40;;;11.70;99.90;;;;;;5006988;28;20026;-74
2023/01/05 12:36:11;;;;;;;34.25;3.90;;;11.70;99.90;;;;;;5022743;28;20468;-74
2023/01/05 12:38:55;;;;;;;26.85;4.38;;;11.80;99.90;;;;;;5028425;28;20017;-75
2023/01/05 12:41:42;;;;;;;25.85;4.00;;;11.80;99.90;;;;;;5032315;28;20104;-74
2023/01/05 12:44:23;;;;;;;31.98;3.38;;;11.80;99.90;;;;;;5031080;28;20079;-74
2023/01/05 12:47:16;;;;;;;27.00;3.17;;;11.80;99.90;;;;;;5040077;28;20025;-74
2023/01/05 12:49:56;;;;;;;26.60;3.42;;;11.90;99.90;;;;;;5018904;28;20025;-75
2023/01/05 12:52:38;;;;;;;28.25;3.97;;;11.90;99.90;;;;;;5033940;28;20057;-74
2023/01/05 12:55:09;;;;;;;30.23;3.60;;;11.90;99.90;;;;;;5035382;28;20558;-75
2023/01/05 12:57:40;;;;;;;29.20;3.00;;;11.90;99.90;;;;;;5036556;28;20037;-75
2023/01/05 13:00:17;;;;;;;26.23;2.90;;;12.00;99.90;;;;;;5027533;28;20033;-74
2023/01/05 13:02:51;;;;;;;30.33;3.60;;;11.90;99.90;;;;;;5035893;28;20076;-72
2023/01/05 13:05:22;;;;;;;32.58;4.70;;;11.90;99.90;;;;;;5033518;28;20025;-73
2023/01/05 13:07:52;;;;;;;30.73;3.30;;;11.90;99.90;;;;;;5031231;28;20049;-72
2023/01/05 13:10:44;;;;;;;33.35;4.15;;;12.00;99.90;;;;;;5031476;28;20087;-72
2023/01/05 13:13:23;;;;;;;28.33;3.58;;;12.20;99.90;;;;;;5026848;28;20029;-73
2023/01/05 13:15:55;;;;;;;27.50;3.63;;;12.20;99.90;;;;;;5028945;28;20037;-72
2023/01/05 13:18:24;;;;;;;27.63;3.53;;;12.20;99.90;;;;;;5024804;28;20124;-73
2023/01/05 13:20:55;;;;;;;34.65;5.07;;;12.20;99.90;;;;;;5025551;28;20501;-72
2023/01/05 13:23:35;;;;;;;24.40;5.15;;;12.20;99.90;;;;;;5039413;28;20457;-75
2023/01/05 13:26:15;;;;;;;33.17;4.50;;;12.10;99.90;;;;;;5027919;28;20046;-75
2023/01/05 13:28:41;;;;;;;41.13;4.65;;;12.10;99.90;;;;;;5031950;28;20152;-74
2023/01/05 13:31:15;;;;;;;28.50;3.70;;;12.00;99.90;;;;;;5031123;28;20029;-74
2023/01/05 13:34:17;;;;;;;25.92;3.47;;;12.00;99.90;;;;;;5038777;28;20074;-74